DW8453 Bekkjarvik NO current weather conditions

sailwx.info

Wind from 270 at 20 knots gusting 20

Air temperature 6.1° C
Dewpoint 3.6° C

Last reported at 2014-Dec-22 15:53 UTC.
Time now 2014-Dec-22 17:02 UTC

Location: N 60°01' E 005°12'.
View on Google Maps.

See reports from other nearby stations

  
Tides and Currents Weather Stations Pressure Air Temp Water Temp Dewpoint Dewpoint Depression Visibility Wind Speed Wind Dir Waves Ship Positions
date/time (UTC)wind fromknots sea level pressurealtimeterstation pressurevisibilityair tempwater tempwave heightnotes
2014-Dec-22 15:53 270 20 gusting 20 6.1
2014-Dec-22 15:43 283 8 gusting 15 6.1
2014-Dec-22 15:33 237 18 gusting 26 6.1
2014-Dec-22 15:23 268 13 gusting 17 6.1
2014-Dec-22 15:13 288 12 gusting 17 6.1
2014-Dec-22 15:03 248 21 gusting 28 6.1
2014-Dec-22 14:53 231 15 gusting 24 6.1
2014-Dec-22 14:43 248 15 gusting 15 6.1
2014-Dec-22 14:33 248 17 gusting 19 5.6
2014-Dec-22 14:23 287 19 gusting 26 6.1
2014-Dec-22 14:13 251 22 gusting 30 6.7
2014-Dec-22 14:03 248 12 gusting 17 6.1
2014-Dec-22 13:53 268 8 gusting 13 6.1
2014-Dec-22 13:43 256 11 gusting 24 6.1
2014-Dec-22 13:33 337 9 gusting 14 6.1
2014-Dec-22 13:23 255 13 gusting 21 6.1
2014-Dec-22 13:13 326 14 gusting 22 6.1
2014-Dec-22 13:03 292 0 gusting 12 6.1
2014-Dec-22 12:53 279 2 gusting 15 6.7
2014-Dec-22 12:43 248 19 gusting 22 6.7
2014-Dec-22 12:33 245 12 gusting 24 6.1
2014-Dec-22 12:23 234 15 gusting 24 6.1
2014-Dec-22 12:13 234 14 gusting 19 6.1
2014-Dec-22 12:03 248 1 gusting 6 5.6
2014-Dec-22 11:53 292 10 gusting 13 5.6
2014-Dec-22 11:43 270 1 gusting 27 6.1
2014-Dec-22 11:33 252 17 gusting 27 5.6
2014-Dec-22 11:23 241 20 gusting 26 5.6
2014-Dec-22 11:13 235 9 gusting 15 5.0
2014-Dec-22 11:03 215 11 gusting 17 5.0
2014-Dec-22 10:53 259 8 gusting 12 4.4
2014-Dec-22 10:43 257 1 gusting 2 4.4
2014-Dec-22 10:33 320 1 gusting 10 4.4
2014-Dec-22 10:23 248 7 gusting 11 4.4
2014-Dec-22 10:13 270 8 gusting 13 4.4
2014-Dec-22 10:03 265 15 gusting 15 5.0
2014-Dec-22 09:53 233 6 gusting 13 5.0
2014-Dec-22 09:43 222 13 gusting 13 5.0
2014-Dec-22 09:33 223 6 gusting 8 4.4
2014-Dec-22 09:23 202 6 gusting 7 4.4
2014-Dec-22 09:13 225 5 gusting 6 4.4
2014-Dec-22 09:03 225 2 gusting 5 4.4
2014-Dec-22 08:53 244 5 gusting 8 5.0
2014-Dec-22 08:43 248 6 gusting 10 5.0
2014-Dec-22 08:33 243 8 gusting 10 5.6
2014-Dec-22 08:23 228 6 gusting 6 5.6
2014-Dec-22 08:13 231 5 gusting 6 5.6
2014-Dec-22 08:03 247 5 gusting 6 5.0
2014-Dec-22 07:53 266 6 gusting 8 5.0
2014-Dec-22 07:43 244 5 gusting 8 5.0
2014-Dec-22 07:33 246 5 gusting 6 5.0
2014-Dec-22 07:23 263 5 gusting 5 5.0
2014-Dec-22 07:13 225 6 gusting 6 4.4
2014-Dec-22 07:03 270 4 gusting 6 4.4
2014-Dec-22 06:53 237 6 gusting 6 4.4
2014-Dec-22 06:43 264 3 gusting 7 5.0
2014-Dec-22 06:33 239 4 gusting 6 5.0
2014-Dec-22 06:23 248 5 gusting 8 5.0
2014-Dec-22 06:13 248 8 gusting 13 5.0
2014-Dec-22 06:03 246 8 gusting 10 5.0
2014-Dec-22 05:53 241 8 gusting 8 5.6
2014-Dec-22 05:43 270 6 gusting 8 5.6
2014-Dec-22 05:33 270 4 gusting 5 5.6
2014-Dec-22 05:23 229 4 gusting 6 5.6
2014-Dec-22 05:13 250 2 gusting 5 5.6
2014-Dec-22 05:03 249 4 gusting 7 5.6
2014-Dec-22 04:53 263 5 gusting 6 5.6
2014-Dec-22 04:43 248 3 gusting 5 5.6
2014-Dec-22 04:33 262 2 gusting 6 5.6
2014-Dec-22 04:23 292 2 gusting 7 5.6
2014-Dec-22 04:13 280 3 gusting 7 5.6
2014-Dec-22 04:03 245 2 gusting 7 5.6
2014-Dec-22 03:53 248 1 gusting 7 5.6
2014-Dec-22 03:43 027 1 gusting 6 5.6
2014-Dec-22 03:33 292 6 gusting 6 5.6
2014-Dec-22 03:23 270 5 gusting 6 5.6
2014-Dec-22 03:13 248 2 gusting 6 5.6
2014-Dec-22 03:03 292 6 gusting 8 5.6
2014-Dec-22 02:53 270 7 gusting 11 5.6
2014-Dec-22 02:43 250 4 gusting 11 5.6
2014-Dec-22 02:33 238 5 gusting 6 5.6
2014-Dec-22 02:23 305 4 gusting 5 5.6
2014-Dec-22 02:13 261 1 gusting 4 5.6
2014-Dec-22 02:03 063 1 gusting 7 5.6
2014-Dec-22 01:53 007 4 gusting 6 6.1
2014-Dec-22 01:43 097 5 gusting 13 6.7
2014-Dec-22 01:33 280 4 gusting 14 6.7
2014-Dec-22 01:23 274 9 gusting 17 6.7
2014-Dec-22 01:13 268 14 gusting 17 6.7
2014-Dec-22 01:03 250 11 gusting 13 6.7
2014-Dec-22 00:53 213 7 gusting 13 6.7
2014-Dec-22 00:43 264 8 gusting 14 7.2
2014-Dec-22 00:33 221 5 gusting 8 7.8
2014-Dec-22 00:23 248 10 gusting 12 7.8
2014-Dec-22 00:13 248 7 gusting 12 8.3
2014-Dec-22 00:03 247 7 gusting 11 7.8
2014-Dec-21 23:53 258 6 gusting 8 7.8
2014-Dec-21 23:43 246 7 gusting 10 7.8
2014-Dec-21 23:33 242 10 gusting 12 8.3
2014-Dec-21 23:23 253 7 gusting 11 8.3
2014-Dec-21 23:13 246 6 gusting 13 8.3
2014-Dec-21 23:03 230 9 gusting 12 8.3
2014-Dec-21 22:53 239 9 gusting 13 8.3
2014-Dec-21 22:43 242 5 gusting 13 8.3
2014-Dec-21 22:33 248 10 gusting 12 8.3
2014-Dec-21 22:23 248 6 gusting 12 8.3
2014-Dec-21 22:13 267 6 gusting 10 8.3
2014-Dec-21 22:03 251 8 gusting 11 8.3
2014-Dec-21 21:53 237 7 gusting 13 8.3
2014-Dec-21 21:43 232 11 gusting 13 8.3
2014-Dec-21 21:33 225 8 gusting 11 8.3
2014-Dec-21 21:23 248 10 gusting 13 8.3
2014-Dec-21 21:13 257 8 gusting 15 8.3
2014-Dec-21 21:03 246 13 gusting 15 8.3
2014-Dec-21 20:53 258 7 gusting 12 8.3
2014-Dec-21 20:43 256 8 gusting 12 8.3
2014-Dec-21 20:33 225 7 gusting 13 8.3
2014-Dec-21 20:23 270 7 gusting 10 8.9
2014-Dec-21 20:13 267 8 gusting 10 8.3
2014-Dec-21 20:03 248 7 gusting 12 8.3
2014-Dec-21 19:53 278 7 gusting 13 8.3
2014-Dec-21 19:43 253 10 gusting 13 8.9
2014-Dec-21 19:33 255 7 gusting 14 8.9
2014-Dec-21 19:23 263 8 gusting 13 8.9
2014-Dec-21 19:13 270 7 gusting 11 8.9
2014-Dec-21 19:03 188 8 gusting 12 8.3
2014-Dec-21 18:53 284 7 gusting 11 8.3
2014-Dec-21 18:43 248 10 gusting 11 8.3
2014-Dec-21 18:33 248 10 gusting 14 8.3
2014-Dec-21 18:23 239 7 gusting 15 8.3
2014-Dec-21 18:13 260 13 gusting 15 8.3
2014-Dec-21 18:03 228 12 gusting 13 8.3
2014-Dec-21 17:53 259 8 gusting 13 8.3
2014-Dec-21 17:43 263 9 gusting 11 8.3
2014-Dec-21 17:33 248 8 gusting 12 8.3
2014-Dec-21 17:23 264 6 gusting 12 8.3
2014-Dec-21 17:13 194 12 gusting 15 8.3
2014-Dec-21 17:03 289 10 gusting 15 8.3
2014-Dec-21 16:53 251 13 gusting 14 8.3
2014-Dec-21 16:43 270 10 gusting 15 8.3
2014-Dec-21 16:33 299 11 gusting 15 8.3
2014-Dec-21 16:23 267 8 gusting 17 8.3
2014-Dec-21 16:13 265 12 gusting 17 8.3
2014-Dec-21 16:03 229 11 gusting 13 8.3
2014-Dec-21 15:53 276 12 gusting 17 8.3
2014-Dec-21 15:43 225 11 gusting 14 8.3
2014-Dec-21 15:33 259 11 gusting 14 8.3
2014-Dec-21 15:23 248 13 gusting 15 8.3
2014-Dec-21 15:13 259 14 gusting 15 7.8
2014-Dec-21 15:03 228 13 gusting 14 7.8
2014-Dec-21 14:53 241 9 gusting 13 7.8
2014-Dec-21 14:43 248 9 gusting 13 7.8
2014-Dec-21 14:33 225 8 gusting 11 7.2
2014-Dec-21 14:23 225 8 gusting 11 7.2
2014-Dec-21 14:13 209 7 gusting 10 6.1
2014-Dec-21 14:03 182 6 gusting 8 6.1
2014-Dec-21 13:53 196 7 gusting 13 5.6
2014-Dec-21 13:43 193 11 gusting 13 5.6
2014-Dec-21 13:33 167 11 gusting 13 5.6
2014-Dec-21 13:23 167 10 gusting 11 5.6
2014-Dec-21 13:13 165 7 gusting 12 5.0
2014-Dec-21 13:03 222 6 gusting 8 5.0
2014-Dec-21 12:53 147 5 gusting 10 5.0
2014-Dec-21 12:43 166 6 gusting 11 5.0
2014-Dec-21 12:33 180 8 gusting 11 5.0
2014-Dec-21 12:23 170 11 gusting 13 5.0
2014-Dec-21 12:13 153 8 gusting 11 4.4
2014-Dec-21 12:03 159 6 gusting 10 4.4
2014-Dec-21 11:53 126 7 gusting 8 4.4
2014-Dec-21 11:43 180 6 gusting 13 4.4
2014-Dec-21 11:33 180 10 gusting 13 4.4
2014-Dec-21 11:23 185 5 gusting 12 4.4
2014-Dec-21 11:13 161 7 gusting 10 4.4
2014-Dec-21 11:03 143 7 gusting 8 4.4
2014-Dec-21 10:53 151 8 gusting 10 4.4
2014-Dec-21 10:43 158 9 gusting 12 3.9
2014-Dec-21 10:33 180 7 gusting 11 3.9
2014-Dec-21 10:23 158 7 gusting 11 3.9
2014-Dec-21 10:13 195 6 gusting 12 3.9
2014-Dec-21 10:03 200 8 gusting 11 3.9
2014-Dec-21 09:53 169 7 gusting 10 3.9
2014-Dec-21 09:43 168 6 gusting 8 3.3
2014-Dec-21 09:33 158 6 gusting 11 3.3
2014-Dec-21 09:23 165 10 gusting 11 3.3
2014-Dec-21 09:13 172 7 gusting 10 3.3
2014-Dec-21 09:03 198 6 gusting 10 3.3
2014-Dec-21 08:53 189 6 gusting 8 3.9
2014-Dec-21 08:43 180 4 gusting 7 3.9
2014-Dec-21 08:33 187 4 gusting 6 3.3
2014-Dec-21 08:23 158 4 gusting 7 3.3
2014-Dec-21 08:13 167 4 gusting 7 3.3
2014-Dec-21 08:03 160 6 gusting 7 3.3
2014-Dec-21 07:53 170 5 gusting 6 3.3
2014-Dec-21 07:43 180 6 gusting 7 3.3
2014-Dec-21 07:33 171 6 gusting 8 3.3
2014-Dec-21 07:23 197 6 gusting 7 3.3
2014-Dec-21 07:13 164 5 gusting 5 3.3
2014-Dec-21 07:03 200 5 gusting 5 3.3
2014-Dec-21 06:53 193 2 gusting 7 3.3
2014-Dec-21 06:43 190 3 gusting 4 3.3
2014-Dec-21 06:33 180 2 gusting 5 3.3
2014-Dec-21 06:23 185 3 gusting 5 3.3
2014-Dec-21 06:13 151 2 gusting 4 3.3
2014-Dec-21 06:03 135 2 gusting 4 3.3
2014-Dec-21 05:53 112 4 gusting 5 3.3
2014-Dec-21 05:33 123 4 gusting 5 2.8
2014-Dec-21 05:23 128 2 gusting 5 2.8
2014-Dec-21 05:13 164 3 gusting 4 2.8
2014-Dec-21 04:43 141 3 gusting 5 2.8
2014-Dec-21 04:23 117 1 gusting 2 2.8
2014-Dec-21 04:13 118 2 gusting 4 2.8
2014-Dec-21 04:03 158 0 gusting 0 2.8
2014-Dec-21 03:53 158 0 gusting 1 2.8
2014-Dec-21 03:43 112 3.3
2014-Dec-21 03:33 085 0 gusting 0 3.3
2014-Dec-21 03:23 158 3.3
2014-Dec-21 03:13 3.3
2014-Dec-21 03:03 021 4 gusting 5 3.3
2014-Dec-21 02:53 158 0 gusting 0 3.3
2014-Dec-21 02:43 158 0 gusting 1 3.3
2014-Dec-21 02:33 158 3.3
2014-Dec-21 02:23 112 3.3
2014-Dec-21 02:13 129 3.3
2014-Dec-21 02:03 111 0 gusting 0 3.3
2014-Dec-21 01:53 135 0 gusting 0 3.9
2014-Dec-21 01:43 106 3.9
2014-Dec-21 01:33 012 0 gusting 4 4.4
2014-Dec-21 01:23 022 1 gusting 4 4.4
2014-Dec-21 01:13 347 4 gusting 5 4.4
2014-Dec-21 01:03 5.0
2014-Dec-21 00:53 5.0
2014-Dec-21 00:43 323 5 gusting 6 5.0
2014-Dec-21 00:33 278 1 gusting 1 5.0
2014-Dec-21 00:23 016 1 gusting 1 4.4
2014-Dec-21 00:13 272 1 gusting 1 4.4
2014-Dec-21 00:03 330 0 gusting 6 4.4
2014-Dec-20 23:53 358 1 gusting 7 4.4
2014-Dec-20 23:43 3.9
2014-Dec-20 23:33 286 0 gusting 1 3.9
2014-Dec-20 23:23 024 0 gusting 5 3.3
2014-Dec-20 23:13 334 3 gusting 5 3.3
2014-Dec-20 23:03 003 0 gusting 0 2.8
2014-Dec-20 22:53 256 2.8
2014-Dec-20 22:43 025 1 gusting 2 2.8
2014-Dec-20 22:33 135 2.2
2014-Dec-20 22:23 158 2.2
2014-Dec-20 22:13 135 0 gusting 0 2.8
2014-Dec-20 22:03 090 0 gusting 0 2.8
2014-Dec-20 21:53 321 0 gusting 1 2.8
2014-Dec-20 21:43 341 2.8
2014-Dec-20 21:33 006 0 gusting 2 2.8
2014-Dec-20 21:23 292 2.8
2014-Dec-20 21:13 040 0 gusting 1 2.8
2014-Dec-20 21:03 2.8
2014-Dec-20 20:53 3.3
2014-Dec-20 20:43 285 2 gusting 6 3.3
2014-Dec-20 20:33 338 2 gusting 5 3.3
2014-Dec-20 20:23 326 3 gusting 5 3.3
2014-Dec-20 20:13 015 2 gusting 11 3.3
2014-Dec-20 19:53 292 2 gusting 6 3.9
2014-Dec-20 19:33 338 1 gusting 8 3.3
2014-Dec-20 19:23 279 5 gusting 7 3.3
2014-Dec-20 19:13 357 5 gusting 6 3.3
2014-Dec-20 19:03 2.8
2014-Dec-20 18:53 356 1 gusting 4 2.8
2014-Dec-20 18:43 338 0 gusting 4 2.2
2014-Dec-20 18:33 338 0 gusting 0 2.2
2014-Dec-20 18:23 085 0 gusting 1 2.2
2014-Dec-20 18:13 069 2.8
2014-Dec-20 18:03 2.2
2014-Dec-20 17:53 135 0 gusting 0 2.2
2014-Dec-20 17:43 093 0 gusting 4 2.8
2014-Dec-20 17:33 051 2 gusting 4 2.2
2014-Dec-20 17:23 120 2.2
2014-Dec-20 17:13 131 0 gusting 0 2.8
2014-Dec-20 17:03 111 0 gusting 1 2.8